sensor_id;sensor_type;location;lat;lon;timestamp;P1;durP1;ratioP1;P2;durP2;ratioP2
23181;SDS011;11759;51.282;6.642;2023-05-21T00:01:52;641.30;;;195.98;;
23181;SDS011;11759;51.282;6.642;2023-05-21T00:04:19;531.83;;;127.18;;
23181;SDS011;11759;51.282;6.642;2023-05-21T00:06:46;514.17;;;121.72;;
23181;SDS011;11759;51.282;6.642;2023-05-21T00:09:12;648.38;;;204.52;;
23181;SDS011;11759;51.282;6.642;2023-05-21T00:11:39;516.92;;;122.72;;
23181;SDS011;11759;51.282;6.642;2023-05-21T00:14:06;576.30;;;150.23;;
23181;SDS011;11759;51.282;6.642;2023-05-21T00:16:32;521.90;;;123.85;;
23181;SDS011;11759;51.282;6.642;2023-05-21T00:18:59;523.50;;;126.30;;
23181;SDS011;11759;51.282;6.642;2023-05-21T00:21:27;566.45;;;145.52;;
23181;SDS011;11759;51.282;6.642;2023-05-21T00:23:54;529.53;;;139.85;;
23181;SDS011;11759;51.282;6.642;2023-05-21T00:26:21;614.20;;;180.45;;
23181;SDS011;11759;51.282;6.642;2023-05-21T00:28:55;511.08;;;118.82;;
23181;SDS011;11759;51.282;6.642;2023-05-21T00:31:22;622.30;;;178.75;;
23181;SDS011;11759;51.282;6.642;2023-05-21T00:33:48;516.45;;;121.10;;
23181;SDS011;11759;51.282;6.642;2023-05-21T00:36:15;552.90;;;137.95;;
23181;SDS011;11759;51.282;6.642;2023-05-21T00:38:43;518.42;;;122.72;;
23181;SDS011;11759;51.282;6.642;2023-05-21T00:41:11;511.67;;;122.85;;
23181;SDS011;11759;51.282;6.642;2023-05-21T00:43:37;571.25;;;150.15;;
23181;SDS011;11759;51.282;6.642;2023-05-21T00:46:07;512.72;;;119.78;;
23181;SDS011;11759;51.282;6.642;2023-05-21T00:48:38;620.78;;;184.48;;
23181;SDS011;11759;51.282;6.642;2023-05-21T00:51:05;521.60;;;121.40;;
23181;SDS011;11759;51.282;6.642;2023-05-21T00:53:32;620.65;;;183.32;;
23181;SDS011;11759;51.282;6.642;2023-05-21T00:56:01;514.85;;;116.93;;
23181;SDS011;11759;51.282;6.642;2023-05-21T00:58:28;569.80;;;144.38;;
23181;SDS011;11759;51.282;6.642;2023-05-21T01:00:55;577.92;;;150.48;;
23181;SDS011;11759;51.282;6.642;2023-05-21T01:03:22;658.03;;;202.95;;
23181;SDS011;11759;51.282;6.642;2023-05-21T01:05:49;515.08;;;120.80;;
23181;SDS011;11759;51.282;6.642;2023-05-21T01:08:18;612.33;;;179.95;;
23181;SDS011;11759;51.282;6.642;2023-05-21T01:10:48;517.13;;;121.90;;
23181;SDS011;11759;51.282;6.642;2023-05-21T01:13:15;589.90;;;168.35;;
23181;SDS011;11759;51.282;6.642;2023-05-21T01:15:43;522.17;;;127.95;;
23181;SDS011;11759;51.282;6.642;2023-05-21T01:18:10;555.72;;;142.40;;
23181;SDS011;11759;51.282;6.642;2023-05-21T01:20:39;536.47;;;125.72;;
23181;SDS011;11759;51.282;6.642;2023-05-21T01:23:07;528.85;;;125.10;;
23181;SDS011;11759;51.282;6.642;2023-05-21T01:25:34;556.78;;;139.40;;
23181;SDS011;11759;51.282;6.642;2023-05-21T01:28:01;547.40;;;132.77;;
23181;SDS011;11759;51.282;6.642;2023-05-21T01:30:28;541.63;;;132.65;;
23181;SDS011;11759;51.282;6.642;2023-05-21T01:32:57;563.15;;;143.48;;
23181;SDS011;11759;51.282;6.642;2023-05-21T01:35:41;551.78;;;137.48;;
23181;SDS011;11759;51.282;6.642;2023-05-21T01:40:59;578.20;;;147.73;;
23181;SDS011;11759;51.282;6.642;2023-05-21T01:43:31;540.10;;;132.68;;
23181;SDS011;11759;51.282;6.642;2023-05-21T01:46:00;577.58;;;150.48;;
23181;SDS011;11759;51.282;6.642;2023-05-21T01:48:28;552.72;;;136.70;;
23181;SDS011;11759;51.282;6.642;2023-05-21T01:50:57;650.50;;;204.10;;
23181;SDS011;11759;51.282;6.642;2023-05-21T01:53:26;536.03;;;129.43;;
23181;SDS011;11759;51.282;6.642;2023-05-21T01:55:52;711.33;;;256.48;;
23181;SDS011;11759;51.282;6.642;2023-05-21T01:58:20;546.20;;;134.18;;
23181;SDS011;11759;51.282;6.642;2023-05-21T02:00:48;565.10;;;148.30;;
23181;SDS011;11759;51.282;6.642;2023-05-21T02:03:16;534.60;;;129.27;;
23181;SDS011;11759;51.282;6.642;2023-05-21T02:05:44;597.17;;;172.45;;
23181;SDS011;11759;51.282;6.642;2023-05-21T02:08:12;540.55;;;135.27;;
23181;SDS011;11759;51.282;6.642;2023-05-21T02:10:41;557.15;;;149.10;;
23181;SDS011;11759;51.282;6.642;2023-05-21T02:13:07;706.50;;;253.98;;
23181;SDS011;11759;51.282;6.642;2023-05-21T02:15:34;526.78;;;126.18;;
23181;SDS011;11759;51.282;6.642;2023-05-21T02:18:01;571.50;;;154.18;;
23181;SDS011;11759;51.282;6.642;2023-05-21T02:20:29;530.70;;;127.40;;
23181;SDS011;11759;51.282;6.642;2023-05-21T02:22:56;542.17;;;132.10;;
23181;SDS011;11759;51.282;6.642;2023-05-21T02:25:22;557.45;;;141.77;;
23181;SDS011;11759;51.282;6.642;2023-05-21T02:27:49;533.38;;;127.90;;
23181;SDS011;11759;51.282;6.642;2023-05-21T02:30:19;668.00;;;223.30;;
23181;SDS011;11759;51.282;6.642;2023-05-21T02:32:46;531.17;;;126.03;;
23181;SDS011;11759;51.282;6.642;2023-05-21T02:35:14;618.80;;;190.65;;
23181;SDS011;11759;51.282;6.642;2023-05-21T02:37:41;534.13;;;130.50;;
23181;SDS011;11759;51.282;6.642;2023-05-21T02:40:09;655.08;;;213.73;;
23181;SDS011;11759;51.282;6.642;2023-05-21T02:42:37;539.40;;;127.35;;
23181;SDS011;11759;51.282;6.642;2023-05-21T02:45:07;688.05;;;240.75;;
23181;SDS011;11759;51.282;6.642;2023-05-21T02:47:35;533.28;;;127.30;;
23181;SDS011;11759;51.282;6.642;2023-05-21T02:50:06;630.83;;;191.70;;
23181;SDS011;11759;51.282;6.642;2023-05-21T02:52:37;532.20;;;126.47;;
23181;SDS011;11759;51.282;6.642;2023-05-21T02:55:04;553.13;;;146.45;;
23181;SDS011;11759;51.282;6.642;2023-05-21T02:57:31;672.42;;;213.95;;
23181;SDS011;11759;51.282;6.642;2023-05-21T02:59:58;526.78;;;124.28;;
23181;SDS011;11759;51.282;6.642;2023-05-21T03:02:25;569.85;;;145.27;;
23181;SDS011;11759;51.282;6.642;2023-05-21T03:04:52;526.50;;;124.50;;
23181;SDS011;11759;51.282;6.642;2023-05-21T03:07:19;556.88;;;145.65;;
23181;SDS011;11759;51.282;6.642;2023-05-21T03:09:46;523.45;;;123.88;;
23181;SDS011;11759;51.282;6.642;2023-05-21T03:12:13;524.25;;;126.25;;
23181;SDS011;11759;51.282;6.642;2023-05-21T03:14:40;636.75;;;203.52;;
23181;SDS011;11759;51.282;6.642;2023-05-21T03:17:12;529.65;;;125.53;;
23181;SDS011;11759;51.282;6.642;2023-05-21T03:19:42;605.42;;;181.80;;
23181;SDS011;11759;51.282;6.642;2023-05-21T03:22:09;523.63;;;124.95;;
23181;SDS011;11759;51.282;6.642;2023-05-21T03:24:39;561.33;;;139.60;;
23181;SDS011;11759;51.282;6.642;2023-05-21T03:27:07;542.00;;;131.50;;
23181;SDS011;11759;51.282;6.642;2023-05-21T03:29:34;630.22;;;186.40;;
23181;SDS011;11759;51.282;6.642;2023-05-21T03:32:01;529.30;;;126.57;;
23181;SDS011;11759;51.282;6.642;2023-05-21T03:34:30;585.33;;;152.57;;
23181;SDS011;11759;51.282;6.642;2023-05-21T03:37:00;533.83;;;128.45;;
23181;SDS011;11759;51.282;6.642;2023-05-21T03:39:27;681.17;;;226.73;;
23181;SDS011;11759;51.282;6.642;2023-05-21T03:41:54;527.05;;;129.65;;
23181;SDS011;11759;51.282;6.642;2023-05-21T03:44:30;682.78;;;223.40;;
23181;SDS011;11759;51.282;6.642;2023-05-21T03:47:16;551.53;;;138.52;;
23181;SDS011;11759;51.282;6.642;2023-05-21T03:49:43;536.30;;;128.93;;
23181;SDS011;11759;51.282;6.642;2023-05-21T03:52:10;530.83;;;125.82;;
23181;SDS011;11759;51.282;6.642;2023-05-21T03:54:36;613.55;;;177.60;;
23181;SDS011;11759;51.282;6.642;2023-05-21T03:57:06;536.65;;;128.50;;
23181;SDS011;11759;51.282;6.642;2023-05-21T03:59:33;563.53;;;142.10;;
23181;SDS011;11759;51.282;6.642;2023-05-21T04:01:59;648.13;;;202.73;;
23181;SDS011;11759;51.282;6.642;2023-05-21T04:04:26;525.28;;;126.97;;
23181;SDS011;11759;51.282;6.642;2023-05-21T04:06:54;644.53;;;201.13;;
23181;SDS011;11759;51.282;6.642;2023-05-21T04:09:21;525.63;;;128.50;;
23181;SDS011;11759;51.282;6.642;2023-05-21T04:11:50;561.03;;;144.45;;
23181;SDS011;11759;51.282;6.642;2023-05-21T04:14:17;515.60;;;123.10;;
23181;SDS011;11759;51.282;6.642;2023-05-21T04:16:43;642.35;;;205.63;;
23181;SDS011;11759;51.282;6.642;2023-05-21T04:19:10;529.58;;;127.55;;
23181;SDS011;11759;51.282;6.642;2023-05-21T04:21:37;517.85;;;123.85;;
23181;SDS011;11759;51.282;6.642;2023-05-21T04:24:04;604.35;;;172.07;;
23181;SDS011;11759;51.282;6.642;2023-05-21T04:26:44;553.15;;;141.68;;
23181;SDS011;11759;51.282;6.642;2023-05-21T04:29:11;522.47;;;125.70;;
23181;SDS011;11759;51.282;6.642;2023-05-21T04:31:38;525.17;;;131.60;;
23181;SDS011;11759;51.282;6.642;2023-05-21T04:34:05;543.03;;;135.18;;
23181;SDS011;11759;51.282;6.642;2023-05-21T04:36:31;525.13;;;124.85;;
23181;SDS011;11759;51.282;6.642;2023-05-21T04:38:59;563.67;;;146.73;;
23181;SDS011;11759;51.282;6.642;2023-05-21T04:41:26;517.00;;;124.70;;
23181;SDS011;11759;51.282;6.642;2023-05-21T04:43:53;572.65;;;150.50;;
23181;SDS011;11759;51.282;6.642;2023-05-21T04:46:23;533.80;;;131.80;;
23181;SDS011;11759;51.282;6.642;2023-05-21T04:48:51;786.42;;;311.38;;
23181;SDS011;11759;51.282;6.642;2023-05-21T04:51:22;522.80;;;126.35;;
23181;SDS011;11759;51.282;6.642;2023-05-21T04:53:50;551.38;;;137.90;;
23181;SDS011;11759;51.282;6.642;2023-05-21T04:56:17;522.50;;;126.85;;
23181;SDS011;11759;51.282;6.642;2023-05-21T04:58:45;540.03;;;134.25;;
23181;SDS011;11759;51.282;6.642;2023-05-21T05:01:15;510.23;;;121.25;;
23181;SDS011;11759;51.282;6.642;2023-05-21T05:03:44;535.15;;;133.00;;
23181;SDS011;11759;51.282;6.642;2023-05-21T05:06:11;527.05;;;126.75;;
23181;SDS011;11759;51.282;6.642;2023-05-21T05:08:38;521.80;;;127.63;;
23181;SDS011;11759;51.282;6.642;2023-05-21T05:11:04;546.42;;;138.55;;
23181;SDS011;11759;51.282;6.642;2023-05-21T05:13:32;515.13;;;125.47;;
23181;SDS011;11759;51.282;6.642;2023-05-21T05:15:59;568.53;;;148.23;;
23181;SDS011;11759;51.282;6.642;2023-05-21T05:18:26;525.30;;;128.13;;
23181;SDS011;11759;51.282;6.642;2023-05-21T05:20:53;567.47;;;146.88;;
23181;SDS011;11759;51.282;6.642;2023-05-21T05:23:20;524.85;;;126.20;;
23181;SDS011;11759;51.282;6.642;2023-05-21T05:25:46;551.70;;;142.02;;
23181;SDS011;11759;51.282;6.642;2023-05-21T05:28:13;534.30;;;131.57;;
23181;SDS011;11759;51.282;6.642;2023-05-21T05:30:40;538.45;;;134.10;;
23181;SDS011;11759;51.282;6.642;2023-05-21T05:33:16;523.85;;;124.55;;
23181;SDS011;11759;51.282;6.642;2023-05-21T05:35:43;742.40;;;282.02;;
23181;SDS011;11759;51.282;6.642;2023-05-21T05:38:10;564.65;;;153.95;;
23181;SDS011;11759;51.282;6.642;2023-05-21T05:40:36;532.85;;;130.10;;
23181;SDS011;11759;51.282;6.642;2023-05-21T05:43:03;514.65;;;123.00;;
23181;SDS011;11759;51.282;6.642;2023-05-21T05:45:30;531.72;;;129.13;;
23181;SDS011;11759;51.282;6.642;2023-05-21T05:47:57;562.28;;;143.15;;
23181;SDS011;11759;51.282;6.642;2023-05-21T05:50:24;526.50;;;131.45;;
23181;SDS011;11759;51.282;6.642;2023-05-21T05:52:51;559.15;;;146.02;;
23181;SDS011;11759;51.282;6.642;2023-05-21T05:55:18;574.78;;;164.93;;
23181;SDS011;11759;51.282;6.642;2023-05-21T05:57:44;564.90;;;149.43;;
23181;SDS011;11759;51.282;6.642;2023-05-21T06:00:13;572.33;;;165.85;;
23181;SDS011;11759;51.282;6.642;2023-05-21T06:02:45;557.20;;;140.90;;
23181;SDS011;11759;51.282;6.642;2023-05-21T06:05:13;573.00;;;161.05;;
23181;SDS011;11759;51.282;6.642;2023-05-21T06:07:40;548.47;;;138.75;;
23181;SDS011;11759;51.282;6.642;2023-05-21T06:10:07;627.97;;;194.77;;
23181;SDS011;11759;51.282;6.642;2023-05-21T06:12:34;522.50;;;128.73;;
23181;SDS011;11759;51.282;6.642;2023-05-21T06:15:01;631.10;;;198.75;;
23181;SDS011;11759;51.282;6.642;2023-05-21T06:17:29;524.65;;;128.65;;
23181;SDS011;11759;51.282;6.642;2023-05-21T06:19:56;547.22;;;143.55;;
23181;SDS011;11759;51.282;6.642;2023-05-21T06:22:25;530.40;;;132.48;;
23181;SDS011;11759;51.282;6.642;2023-05-21T06:24:51;529.20;;;132.90;;
23181;SDS011;11759;51.282;6.642;2023-05-21T06:27:19;583.20;;;157.27;;
23181;SDS011;11759;51.282;6.642;2023-05-21T06:29:46;526.03;;;132.38;;
23181;SDS011;11759;51.282;6.642;2023-05-21T06:32:13;635.22;;;200.77;;
23181;SDS011;11759;51.282;6.642;2023-05-21T06:34:40;524.72;;;130.10;;
23181;SDS011;11759;51.282;6.642;2023-05-21T06:37:07;803.45;;;317.83;;
23181;SDS011;11759;51.282;6.642;2023-05-21T06:39:34;518.67;;;128.15;;
23181;SDS011;11759;51.282;6.642;2023-05-21T06:42:01;564.83;;;148.77;;
23181;SDS011;11759;51.282;6.642;2023-05-21T06:44:57;546.90;;;140.30;;
23181;SDS011;11759;51.282;6.642;2023-05-21T06:47:28;529.08;;;128.68;;
23181;SDS011;11759;51.282;6.642;2023-05-21T06:49:55;547.65;;;142.75;;
23181;SDS011;11759;51.282;6.642;2023-05-21T06:52:21;543.80;;;139.70;;
23181;SDS011;11759;51.282;6.642;2023-05-21T06:54:48;526.15;;;134.38;;
23181;SDS011;11759;51.282;6.642;2023-05-21T06:57:15;567.30;;;157.90;;
23181;SDS011;11759;51.282;6.642;2023-05-21T06:59:42;522.72;;;131.90;;
23181;SDS011;11759;51.282;6.642;2023-05-21T07:02:09;679.58;;;235.90;;
23181;SDS011;11759;51.282;6.642;2023-05-21T07:04:36;529.40;;;132.73;;
23181;SDS011;11759;51.282;6.642;2023-05-21T07:07:04;579.50;;;161.95;;
23181;SDS011;11759;51.282;6.642;2023-05-21T07:09:31;527.88;;;134.80;;
23181;SDS011;11759;51.282;6.642;2023-05-21T07:11:58;558.25;;;151.70;;
23181;SDS011;11759;51.282;6.642;2023-05-21T07:14:24;544.67;;;142.15;;
23181;SDS011;11759;51.282;6.642;2023-05-21T07:16:52;554.95;;;150.32;;
23181;SDS011;11759;51.282;6.642;2023-05-21T07:19:20;562.50;;;152.38;;
23181;SDS011;11759;51.282;6.642;2023-05-21T07:21:47;598.40;;;175.60;;
23181;SDS011;11759;51.282;6.642;2023-05-21T07:24:16;575.40;;;168.35;;
23181;SDS011;11759;51.282;6.642;2023-05-21T07:26:42;551.20;;;151.70;;
23181;SDS011;11759;51.282;6.642;2023-05-21T07:29:10;585.67;;;171.38;;
23181;SDS011;11759;51.282;6.642;2023-05-21T07:31:37;551.95;;;157.20;;
23181;SDS011;11759;51.282;6.642;2023-05-21T07:34:04;703.00;;;263.83;;
23181;SDS011;11759;51.282;6.642;2023-05-21T07:36:32;560.78;;;163.45;;
23181;SDS011;11759;51.282;6.642;2023-05-21T07:38:59;762.88;;;312.40;;
23181;SDS011;11759;51.282;6.642;2023-05-21T07:41:27;563.22;;;165.00;;
23181;SDS011;11759;51.282;6.642;2023-05-21T07:43:57;584.05;;;183.65;;
23181;SDS011;11759;51.282;6.642;2023-05-21T07:46:25;569.85;;;176.38;;
23181;SDS011;11759;51.282;6.642;2023-05-21T07:48:54;626.10;;;222.27;;
23181;SDS011;11759;51.282;6.642;2023-05-21T07:51:21;558.60;;;165.77;;
23181;SDS011;11759;51.282;6.642;2023-05-21T07:53:48;562.45;;;172.32;;
23181;SDS011;11759;51.282;6.642;2023-05-21T07:56:17;607.28;;;195.55;;
23181;SDS011;11759;51.282;6.642;2023-05-21T07:58:44;562.92;;;168.63;;
23181;SDS011;11759;51.282;6.642;2023-05-21T08:01:13;576.88;;;178.18;;
23181;SDS011;11759;51.282;6.642;2023-05-21T08:03:39;599.47;;;192.98;;
23181;SDS011;11759;51.282;6.642;2023-05-21T08:06:06;596.95;;;192.48;;
23181;SDS011;11759;51.282;6.642;2023-05-21T08:08:33;562.17;;;169.70;;
23181;SDS011;11759;51.282;6.642;2023-05-21T08:10:59;697.40;;;276.27;;
23181;SDS011;11759;51.282;6.642;2023-05-21T08:13:28;558.25;;;166.75;;
23181;SDS011;11759;51.282;6.642;2023-05-21T08:15:55;581.20;;;186.20;;
23181;SDS011;11759;51.282;6.642;2023-05-21T08:18:22;570.45;;;173.95;;
23181;SDS011;11759;51.282;6.642;2023-05-21T08:20:50;570.55;;;181.35;;
23181;SDS011;11759;51.282;6.642;2023-05-21T08:23:18;561.25;;;170.65;;
23181;SDS011;11759;51.282;6.642;2023-05-21T08:25:49;567.97;;;179.88;;
23181;SDS011;11759;51.282;6.642;2023-05-21T08:28:16;579.03;;;185.38;;
23181;SDS011;11759;51.282;6.642;2023-05-21T08:30:43;558.75;;;177.55;;
23181;SDS011;11759;51.282;6.642;2023-05-21T08:33:10;560.60;;;175.05;;
23181;SDS011;11759;51.282;6.642;2023-05-21T08:35:37;590.63;;;194.13;;
23181;SDS011;11759;51.282;6.642;2023-05-21T08:38:19;582.42;;;191.27;;
23181;SDS011;11759;51.282;6.642;2023-05-21T08:41:04;565.05;;;181.90;;
23181;SDS011;11759;51.282;6.642;2023-05-21T08:43:32;602.20;;;214.15;;
23181;SDS011;11759;51.282;6.642;2023-05-21T08:46:01;576.20;;;206.70;;
23181;SDS011;11759;51.282;6.642;2023-05-21T08:48:32;604.53;;;220.85;;
23181;SDS011;11759;51.282;6.642;2023-05-21T08:51:00;566.88;;;198.50;;
23181;SDS011;11759;51.282;6.642;2023-05-21T08:53:33;606.55;;;236.07;;
23181;SDS011;11759;51.282;6.642;2023-05-21T08:56:02;581.63;;;225.88;;
23181;SDS011;11759;51.282;6.642;2023-05-21T08:58:46;582.90;;;211.25;;
23181;SDS011;11759;51.282;6.642;2023-05-21T09:01:17;591.33;;;215.13;;
23181;SDS011;11759;51.282;6.642;2023-05-21T09:03:46;573.97;;;205.07;;
23181;SDS011;11759;51.282;6.642;2023-05-21T09:06:13;586.38;;;212.95;;
23181;SDS011;11759;51.282;6.642;2023-05-21T09:08:44;581.88;;;215.73;;
23181;SDS011;11759;51.282;6.642;2023-05-21T09:11:34;646.53;;;259.27;;
23181;SDS011;11759;51.282;6.642;2023-05-21T09:14:00;572.13;;;207.57;;
23181;SDS011;11759;51.282;6.642;2023-05-21T09:16:47;583.00;;;204.02;;
23181;SDS011;11759;51.282;6.642;2023-05-21T09:19:15;592.20;;;214.50;;
23181;SDS011;11759;51.282;6.642;2023-05-21T09:21:42;587.33;;;207.20;;
23181;SDS011;11759;51.282;6.642;2023-05-21T09:24:12;569.83;;;201.00;;
23181;SDS011;11759;51.282;6.642;2023-05-21T09:26:43;662.75;;;266.50;;
23181;SDS011;11759;51.282;6.642;2023-05-21T09:29:11;684.28;;;284.98;;
23181;SDS011;11759;51.282;6.642;2023-05-21T09:31:42;571.70;;;212.45;;
23181;SDS011;11759;51.282;6.642;2023-05-21T09:34:25;578.25;;;204.68;;
23181;SDS011;11759;51.282;6.642;2023-05-21T09:36:55;593.55;;;216.90;;
23181;SDS011;11759;51.282;6.642;2023-05-21T09:39:28;581.53;;;214.23;;
23181;SDS011;11759;51.282;6.642;2023-05-21T09:41:59;609.00;;;227.88;;
23181;SDS011;11759;51.282;6.642;2023-05-21T09:44:26;580.42;;;221.80;;
23181;SDS011;11759;51.282;6.642;2023-05-21T09:46:56;604.90;;;226.88;;
23181;SDS011;11759;51.282;6.642;2023-05-21T09:49:26;583.55;;;219.23;;
23181;SDS011;11759;51.282;6.642;2023-05-21T09:51:57;597.65;;;241.23;;
23181;SDS011;11759;51.282;6.642;2023-05-21T09:54:24;584.25;;;229.63;;
23181;SDS011;11759;51.282;6.642;2023-05-21T09:56:56;614.22;;;251.27;;
23181;SDS011;11759;51.282;6.642;2023-05-21T09:59:23;589.70;;;243.20;;
23181;SDS011;11759;51.282;6.642;2023-05-21T10:01:50;596.05;;;237.15;;
23181;SDS011;11759;51.282;6.642;2023-05-21T10:04:18;609.00;;;259.17;;
23181;SDS011;11759;51.282;6.642;2023-05-21T10:06:45;607.55;;;270.33;;
23181;SDS011;11759;51.282;6.642;2023-05-21T10:09:13;620.63;;;291.70;;
23181;SDS011;11759;51.282;6.642;2023-05-21T10:11:42;600.78;;;274.17;;
23181;SDS011;11759;51.282;6.642;2023-05-21T10:14:14;687.45;;;341.25;;
23181;SDS011;11759;51.282;6.642;2023-05-21T10:16:42;610.85;;;287.15;;
23181;SDS011;11759;51.282;6.642;2023-05-21T10:19:10;635.92;;;308.42;;
23181;SDS011;11759;51.282;6.642;2023-05-21T10:21:37;607.15;;;280.90;;
23181;SDS011;11759;51.282;6.642;2023-05-21T10:24:05;640.55;;;320.52;;
23181;SDS011;11759;51.282;6.642;2023-05-21T10:26:32;622.72;;;321.13;;
23181;SDS011;11759;51.282;6.642;2023-05-21T10:28:59;719.50;;;388.25;;
23181;SDS011;11759;51.282;6.642;2023-05-21T10:31:27;616.65;;;317.08;;
23181;SDS011;11759;51.282;6.642;2023-05-21T10:33:55;637.17;;;336.80;;
23181;SDS011;11759;51.282;6.642;2023-05-21T10:36:24;616.55;;;312.80;;
23181;SDS011;11759;51.282;6.642;2023-05-21T10:38:55;630.67;;;307.38;;
23181;SDS011;11759;51.282;6.642;2023-05-21T10:41:22;606.50;;;294.08;;
23181;SDS011;11759;51.282;6.642;2023-05-21T10:49:40;615.50;;;298.20;;
23181;SDS011;11759;51.282;6.642;2023-05-21T10:55:35;675.95;;;335.33;;
23181;SDS011;11759;51.282;6.642;2023-05-21T10:58:12;601.30;;;269.92;;
23181;SDS011;11759;51.282;6.642;2023-05-21T11:00:44;621.25;;;285.38;;
23181;SDS011;11759;51.282;6.642;2023-05-21T11:03:11;605.50;;;287.17;;
23181;SDS011;11759;51.282;6.642;2023-05-21T11:05:39;635.20;;;300.48;;
23181;SDS011;11759;51.282;6.642;2023-05-21T11:08:23;616.30;;;295.58;;
23181;SDS011;11759;51.282;6.642;2023-05-21T11:10:56;613.25;;;318.42;;
23181;SDS011;11759;51.282;6.642;2023-05-21T11:13:24;653.28;;;338.90;;
23181;SDS011;11759;51.282;6.642;2023-05-21T11:21:12;625.78;;;353.48;;
23181;SDS011;11759;51.282;6.642;2023-05-21T11:23:47;656.78;;;410.77;;
23181;SDS011;11759;51.282;6.642;2023-05-21T11:31:30;644.85;;;422.88;;
23181;SDS011;11759;51.282;6.642;2023-05-21T11:34:10;651.45;;;426.33;;
23181;SDS011;11759;51.282;6.642;2023-05-21T11:36:43;655.72;;;415.42;;
23181;SDS011;11759;51.282;6.642;2023-05-21T11:39:15;638.92;;;414.33;;
23181;SDS011;11759;51.282;6.642;2023-05-21T11:44:40;658.47;;;466.50;;
23181;SDS011;11759;51.282;6.642;2023-05-21T11:47:14;706.47;;;516.22;;
23181;SDS011;11759;51.282;6.642;2023-05-21T11:49:46;663.17;;;479.88;;
23181;SDS011;11759;51.282;6.642;2023-05-21T11:52:14;703.17;;;521.70;;
23181;SDS011;11759;51.282;6.642;2023-05-21T11:54:45;657.35;;;480.20;;
23181;SDS011;11759;51.282;6.642;2023-05-21T11:57:13;707.83;;;521.50;;
23181;SDS011;11759;51.282;6.642;2023-05-21T11:59:44;668.25;;;520.08;;
23181;SDS011;11759;51.282;6.642;2023-05-21T12:02:16;784.85;;;617.85;;
23181;SDS011;11759;51.282;6.642;2023-05-21T12:04:47;666.55;;;527.35;;
23181;SDS011;11759;51.282;6.642;2023-05-21T12:07:16;704.95;;;580.03;;
23181;SDS011;11759;51.282;6.642;2023-05-21T12:09:45;687.25;;;604.72;;
23181;SDS011;11759;51.282;6.642;2023-05-21T12:12:19;717.85;;;616.22;;
23181;SDS011;11759;51.282;6.642;2023-05-21T12:14:53;685.08;;;589.30;;
23181;SDS011;11759;51.282;6.642;2023-05-21T12:17:21;728.50;;;609.85;;
23181;SDS011;11759;51.282;6.642;2023-05-21T12:19:55;690.03;;;608.35;;
23181;SDS011;11759;51.282;6.642;2023-05-21T12:22:22;702.08;;;591.50;;
23181;SDS011;11759;51.282;6.642;2023-05-21T12:24:50;681.45;;;577.58;;
23181;SDS011;11759;51.282;6.642;2023-05-21T12:27:19;691.42;;;580.63;;
23181;SDS011;11759;51.282;6.642;2023-05-21T12:29:48;688.90;;;605.40;;
23181;SDS011;11759;51.282;6.642;2023-05-21T12:32:15;697.13;;;620.95;;
23181;SDS011;11759;51.282;6.642;2023-05-21T12:34:46;737.50;;;658.97;;
23181;SDS011;11759;51.282;6.642;2023-05-21T12:37:15;729.47;;;652.33;;
23181;SDS011;11759;51.282;6.642;2023-05-21T12:39:43;746.95;;;665.35;;
23181;SDS011;11759;51.282;6.642;2023-05-21T12:42:13;710.42;;;633.17;;
23181;SDS011;11759;51.282;6.642;2023-05-21T12:44:43;708.88;;;626.75;;
23181;SDS011;11759;51.282;6.642;2023-05-21T12:47:11;683.92;;;580.25;;
23181;SDS011;11759;51.282;6.642;2023-05-21T12:52:10;674.65;;;565.08;;
23181;SDS011;11759;51.282;6.642;2023-05-21T12:54:39;746.78;;;590.22;;
23181;SDS011;11759;51.282;6.642;2023-05-21T12:57:17;677.50;;;541.78;;
23181;SDS011;11759;51.282;6.642;2023-05-21T12:59:52;676.47;;;542.60;;
23181;SDS011;11759;51.282;6.642;2023-05-21T13:07:23;699.45;;;574.42;;
23181;SDS011;11759;51.282;6.642;2023-05-21T13:09:51;672.38;;;552.47;;
23181;SDS011;11759;51.282;6.642;2023-05-21T13:12:19;682.17;;;560.55;;
23181;SDS011;11759;51.282;6.642;2023-05-21T13:14:48;670.05;;;556.50;;
23181;SDS011;11759;51.282;6.642;2023-05-21T13:17:15;680.03;;;566.22;;
23181;SDS011;11759;51.282;6.642;2023-05-21T13:19:45;706.47;;;596.22;;
23181;SDS011;11759;51.282;6.642;2023-05-21T13:22:31;718.95;;;613.13;;
23181;SDS011;11759;51.282;6.642;2023-05-21T13:24:58;684.00;;;592.17;;
23181;SDS011;11759;51.282;6.642;2023-05-21T13:27:24;709.60;;;631.17;;
23181;SDS011;11759;51.282;6.642;2023-05-21T13:29:51;741.97;;;664.40;;
23181;SDS011;11759;51.282;6.642;2023-05-21T13:32:18;795.78;;;715.20;;
23181;SDS011;11759;51.282;6.642;2023-05-21T13:34:45;815.13;;;735.45;;
23181;SDS011;11759;51.282;6.642;2023-05-21T13:37:13;796.95;;;716.67;;
23181;SDS011;11759;51.282;6.642;2023-05-21T13:39:40;759.75;;;682.20;;
23181;SDS011;11759;51.282;6.642;2023-05-21T13:42:07;728.97;;;650.97;;
23181;SDS011;11759;51.282;6.642;2023-05-21T13:44:33;698.28;;;621.58;;
23181;SDS011;11759;51.282;6.642;2023-05-21T13:47:02;712.72;;;632.78;;
23181;SDS011;11759;51.282;6.642;2023-05-21T13:49:29;713.35;;;629.08;;
23181;SDS011;11759;51.282;6.642;2023-05-21T13:51:56;720.42;;;642.33;;
23181;SDS011;11759;51.282;6.642;2023-05-21T13:54:23;727.42;;;650.13;;
23181;SDS011;11759;51.282;6.642;2023-05-21T13:56:50;801.28;;;714.53;;
23181;SDS011;11759;51.282;6.642;2023-05-21T13:59:16;725.78;;;648.67;;
23181;SDS011;11759;51.282;6.642;2023-05-21T14:01:43;742.53;;;661.42;;
23181;SDS011;11759;51.282;6.642;2023-05-21T14:04:10;726.65;;;649.47;;
23181;SDS011;11759;51.282;6.642;2023-05-21T14:06:37;745.92;;;665.55;;
23181;SDS011;11759;51.282;6.642;2023-05-21T14:09:04;753.65;;;675.45;;
23181;SDS011;11759;51.282;6.642;2023-05-21T14:11:30;770.33;;;688.47;;
23181;SDS011;11759;51.282;6.642;2023-05-21T14:13:58;735.63;;;657.65;;
23181;SDS011;11759;51.282;6.642;2023-05-21T14:16:26;736.90;;;658.72;;
23181;SDS011;11759;51.282;6.642;2023-05-21T14:18:53;742.47;;;662.63;;
23181;SDS011;11759;51.282;6.642;2023-05-21T14:21:20;735.97;;;658.92;;
23181;SDS011;11759;51.282;6.642;2023-05-21T14:23:47;772.17;;;691.80;;
23181;SDS011;11759;51.282;6.642;2023-05-21T14:26:14;767.78;;;687.15;;
23181;SDS011;11759;51.282;6.642;2023-05-21T14:28:41;795.28;;;713.35;;
23181;SDS011;11759;51.282;6.642;2023-05-21T14:31:08;777.00;;;696.45;;
23181;SDS011;11759;51.282;6.642;2023-05-21T14:33:35;774.10;;;696.45;;
23181;SDS011;11759;51.282;6.642;2023-05-21T14:36:05;835.05;;;745.28;;
23181;SDS011;11759;51.282;6.642;2023-05-21T14:38:32;733.35;;;656.45;;